Ulm, Montana
Current Conditions -  °F | °C
As of 5:53 PM on Monday 20 Oct 2014 (Local Time) from KGTF Reporting Station
Clear Clear  
Wind Chill: 70°   Ceiling: Unl
Heat Index: 70°   Visibility: 10mi
Dew Point: 34°   Wind: 7mph
Humidity: 27%   Direction: 180°S
Pressure: 29.75"   Gusts: NA
Location:  47.43°N, 111.51°W
Report Text: KGTF 202353Z 18006KT 10SM CLR 21/01 A2975 RMK AO2 SLP054 T02110011 10256 20211 56007
Loading
Personal Weather Stations






























Interactive Weather Map
Tropical Storm Tracking
New forecast layout! Learn more

10-Day Weather Forecast

Advertisements
Track Severe Weather on mobile